Cow Island, Louisiana
Current Conditions -  °F | °C
As of 4:55 PM on Thursday 20 Nov 2014 (Local Time) from KIYA Reporting Station
Scattered Clouds Scattered Clouds  
Wind Chill: 60°   Ceiling: Unl
Heat Index: 60°   Visibility: 10mi
Dew Point: 49°   Wind: 9mph
Humidity: 68%   Direction: 140°SE
Pressure: 30.17"   Gusts: NA
Location:  29.8955°N, 92.208°W
Report Text: KIYA 202255Z AUTO 14008KT 10SM SCT070 16/10 A3017 RMK AO2 T01570097
Loading
Personal Weather Stations






























Interactive Weather Map New forecast layout! Learn more

10-Day Weather Forecast

Advertisements
Track Severe Weather on mobile